Time;durP1;ratioP1;P1;durP2;ratioP2;P2;SDS_P1;SDS_P2;PMS_P1;PMS_P2;Temp;Humidity;BMP_temperature;BMP_pressure;BME280_temperature;BME280_humidity;BME280_pressure;Samples;Min_cycle;Max_cycle;Signal;HPM_P1;HPM_P2
2023/11/19 00:00:30;;;;;;;3.38;2.10;;;;;;;7.94;80.73;98528.97;4985902;28;104250;-66
2023/11/19 00:03:01;;;;;;;4.30;2.25;;;;;;;7.96;81.03;98521.72;4981966;28;104075;-66
2023/11/19 00:05:29;;;;;;;2.80;1.80;;;;;;;8.00;80.66;98517.78;4993030;28;103290;-66
2023/11/19 00:07:58;;;;;;;4.30;2.28;;;;;;;8.03;80.93;98521.91;4987949;28;102636;-66
2023/11/19 00:10:26;;;;;;;3.72;2.00;;;;;;;8.08;80.52;98509.94;4990134;28;102639;-66
2023/11/19 00:12:54;;;;;;;3.88;2.40;;;;;;;8.11;80.55;98499.06;4984614;28;104041;-67
2023/11/19 00:20:13;;;;;;;3.40;2.15;;;;;;;8.07;81.98;98492.44;4992495;28;103119;-66
2023/11/19 00:22:42;;;;;;;4.57;2.40;;;;;;;8.06;82.06;98479.44;4991541;28;102815;-67
2023/11/19 00:25:14;;;;;;;5.28;2.30;;;;;;;8.11;82.10;98477.97;4997076;28;103241;-67
2023/11/19 00:32:00;;;;;;;2.28;1.60;;;;;;;8.18;82.59;98466.78;4991655;28;102579;-68
2023/11/19 00:34:28;;;;;;;2.63;1.77;;;;;;;8.22;82.21;98465.47;4990783;28;102760;-67
2023/11/19 00:36:58;;;;;;;3.30;1.85;;;;;;;8.26;82.76;98466.81;4998622;28;104095;-67
2023/11/19 00:39:26;;;;;;;4.40;2.20;;;;;;;8.29;82.87;98469.97;4994954;28;103189;-68
2023/11/19 00:41:54;;;;;;;2.88;1.90;;;;;;;8.31;83.08;98456.59;5000440;28;103002;-67
2023/11/19 00:48:40;;;;;;;3.72;1.50;;;;;;;8.41;82.42;98469.66;4988411;28;103283;-67
2023/11/19 00:51:12;;;;;;;2.28;1.63;;;;;;;8.46;82.38;98459.47;4998337;28;103486;-67
2023/11/19 00:53:42;;;;;;;3.10;1.77;;;;;;;8.50;82.96;98465.25;4998689;28;103609;-68
2023/11/19 00:56:12;;;;;;;1.52;1.25;;;;;;;8.51;82.65;98456.38;4996165;28;103105;-69
2023/11/19 00:58:40;;;;;;;1.73;1.50;;;;;;;8.57;82.38;98450.44;4996253;28;104390;-68
2023/11/19 01:01:08;;;;;;;2.83;1.60;;;;;;;8.59;82.53;98443.19;4992931;28;103335;-68
2023/11/19 01:03:38;;;;;;;2.33;1.58;;;;;;;8.62;82.64;98458.72;4994340;28;103076;-69
2023/11/19 01:06:08;;;;;;;2.30;1.50;;;;;;;8.65;82.77;98453.09;4986792;28;103543;-69
2023/11/19 01:08:37;;;;;;;1.77;1.40;;;;;;;8.66;83.13;98449.47;4995743;28;103812;-68
2023/11/19 01:11:06;;;;;;;1.65;1.20;;;;;;;8.69;82.95;98451.78;5005347;28;103264;-69
2023/11/19 01:13:36;;;;;;;3.20;1.73;;;;;;;8.70;82.96;98452.59;4992609;28;102636;-69
2023/11/19 01:16:06;;;;;;;1.92;1.23;;;;;;;8.74;83.08;98438.13;4996318;28;104604;-69
2023/11/19 01:18:35;;;;;;;1.77;1.42;;;;;;;8.76;82.86;98449.31;4992966;28;103266;-69
2023/11/19 01:21:04;;;;;;;1.30;1.20;;;;;;;8.79;82.92;98454.28;4985515;28;103427;-69
2023/11/19 01:23:34;;;;;;;1.60;1.20;;;;;;;8.81;83.19;98448.84;4995155;28;102729;-69
2023/11/19 01:26:02;;;;;;;2.33;1.70;;;;;;;8.83;82.95;98447.69;4996313;28;104503;-69
2023/11/19 01:28:31;;;;;;;1.75;1.40;;;;;;;8.78;82.91;98437.59;4997010;28;103496;-69
2023/11/19 01:30:59;;;;;;;2.08;1.33;;;;;;;8.84;82.82;98427.38;4994975;28;103242;-69
2023/11/19 01:33:28;;;;;;;1.95;1.25;;;;;;;8.86;83.38;98438.63;4989542;28;102641;-69
2023/11/19 01:35:58;;;;;;;2.58;1.52;;;;;;;8.91;83.28;98431.03;4994527;28;103922;-69
2023/11/19 01:38:27;;;;;;;2.53;1.48;;;;;;;8.91;83.23;98433.69;5004292;27;103807;-69
2023/11/19 01:40:57;;;;;;;1.90;1.40;;;;;;;8.92;83.16;98420.31;4989336;28;104198;-69
2023/11/19 01:43:36;;;;;;;1.45;1.25;;;;;;;8.93;83.28;98423.75;4996008;28;102987;-69
2023/11/19 01:46:10;;;;;;;3.63;1.77;;;;;;;8.95;83.01;98424.44;4992884;28;102650;-68
2023/11/19 01:48:43;;;;;;;2.92;1.35;;;;;;;8.95;83.71;98419.97;4991905;28;104203;-68
2023/11/19 01:51:13;;;;;;;1.35;1.17;;;;;;;8.96;83.43;98418.13;4999012;28;103468;-68
2023/11/19 01:53:41;;;;;;;3.40;2.15;;;;;;;9.00;83.24;98418.63;4996918;28;102721;-68
2023/11/19 01:56:10;;;;;;;4.07;1.67;;;;;;;9.00;83.68;98424.75;4993590;28;102804;-68
2023/11/19 01:58:42;;;;;;;2.72;1.60;;;;;;;8.98;83.88;98424.09;4996871;28;102976;-68
2023/11/19 02:01:12;;;;;;;1.38;1.27;;;;;;;8.99;83.94;98427.53;4993853;28;103367;-68
2023/11/19 02:03:40;;;;;;;1.58;1.33;;;;;;;9.01;83.82;98422.94;4997890;28;102787;-68
2023/11/19 02:06:10;;;;;;;2.30;1.63;;;;;;;9.02;83.61;98425.41;5006064;28;102639;-69
2023/11/19 02:08:39;;;;;;;2.80;1.70;;;;;;;9.04;83.40;98420.81;4995744;28;103552;-68
2023/11/19 02:11:08;;;;;;;2.70;1.60;;;;;;;9.06;83.97;98429.38;4992308;28;103217;-68
2023/11/19 02:13:41;;;;;;;2.60;1.63;;;;;;;9.06;83.81;98424.09;4990170;28;102998;-68
2023/11/19 02:16:10;;;;;;;3.25;1.50;;;;;;;9.04;83.44;98417.31;4992117;28;104042;-68
2023/11/19 02:18:41;;;;;;;1.77;1.23;;;;;;;9.06;83.88;98423.28;4996868;28;103373;-68
2023/11/19 02:21:10;;;;;;;2.47;1.48;;;;;;;9.08;84.20;98419.47;4994167;28;103471;-68
2023/11/19 02:23:38;;;;;;;2.92;1.65;;;;;;;9.10;83.86;98408.72;4989341;28;102751;-68
2023/11/19 02:26:16;;;;;;;3.90;1.90;;;;;;;9.13;83.79;98406.59;4985122;28;102968;-69
2023/11/19 02:28:46;;;;;;;1.55;1.40;;;;;;;9.13;83.57;98409.25;4991861;28;102956;-69
2023/11/19 02:31:14;;;;;;;2.17;1.45;;;;;;;9.16;83.81;98401.94;4984499;28;104227;-69
2023/11/19 02:33:42;;;;;;;2.35;1.50;;;;;;;9.15;83.61;98405.59;4989713;28;102666;-69
2023/11/19 02:36:11;;;;;;;4.35;1.90;;;;;;;9.15;83.59;98408.25;4995230;28;102777;-69
2023/11/19 02:38:39;;;;;;;2.15;1.40;;;;;;;9.12;84.32;98412.06;4997376;28;104364;-69
2023/11/19 02:41:08;;;;;;;2.75;1.80;;;;;;;9.16;83.64;98408.09;4993269;28;104800;-69
2023/11/19 02:43:38;;;;;;;3.45;2.13;;;;;;;9.15;84.31;98413.53;4987302;28;102690;-69
2023/11/19 02:46:08;;;;;;;3.50;1.90;;;;;;;9.13;83.81;98411.88;4994198;28;103937;-67
2023/11/19 02:48:40;;;;;;;2.85;1.70;;;;;;;9.09;83.78;98410.56;4984486;28;104160;-69
2023/11/19 02:51:09;;;;;;;2.80;1.80;;;;;;;9.16;83.96;98415.16;4987991;28;103268;-69
2023/11/19 02:53:39;;;;;;;3.35;2.00;;;;;;;9.19;83.92;98414.84;4990447;28;103458;-69
2023/11/19 02:56:15;;;;;;;4.50;2.30;;;;;;;9.15;83.72;98409.06;4993997;28;103701;-69
2023/11/19 02:58:47;;;;;;;2.92;1.83;;;;;;;9.18;84.03;98413.19;4992792;28;104360;-69
2023/11/19 03:01:29;;;;;;;4.13;2.30;;;;;;;9.14;83.71;98407.41;4992292;28;102984;-70
2023/11/19 03:04:00;;;;;;;2.83;1.75;;;;;;;9.07;84.13;98409.06;4987208;28;102700;-69
2023/11/19 03:06:28;;;;;;;3.70;2.17;;;;;;;9.05;84.35;98406.59;4993479;28;102731;-70
2023/11/19 03:08:57;;;;;;;5.75;2.70;;;;;;;8.99;83.89;98420.47;4994438;28;103281;-69
2023/11/19 03:11:25;;;;;;;7.38;3.00;;;;;;;8.96;84.21;98410.22;4989412;28;103257;-70
2023/11/19 03:13:53;;;;;;;4.00;2.33;;;;;;;9.00;84.16;98402.78;4997298;28;102627;-69
2023/11/19 03:16:23;;;;;;;7.60;3.50;;;;;;;8.97;84.39;98414.50;4994660;28;102624;-69
2023/11/19 03:18:51;;;;;;;4.75;2.88;;;;;;;8.92;84.18;98422.09;4991033;28;103242;-70
2023/11/19 03:21:19;;;;;;;5.35;3.38;;;;;;;8.94;84.50;98422.78;4990769;28;103273;-70
2023/11/19 03:23:48;;;;;;;8.25;3.42;;;;;;;8.96;84.35;98413.69;4994367;28;102695;-69
2023/11/19 03:26:16;;;;;;;3.30;2.00;;;;;;;8.98;84.49;98410.06;4991239;28;102806;-70
2023/11/19 03:28:44;;;;;;;4.85;3.00;;;;;;;8.99;84.45;98407.25;4993657;28;104297;-69
2023/11/19 03:31:12;;;;;;;4.50;2.88;;;;;;;8.96;84.52;98407.56;4988520;28;103190;-69
2023/11/19 03:33:41;;;;;;;4.05;2.70;;;;;;;9.00;84.69;98403.63;4992690;28;102658;-69
2023/11/19 03:36:10;;;;;;;5.63;3.47;;;;;;;9.01;84.65;98399.16;4994707;27;102671;-69
2023/11/19 03:38:38;;;;;;;5.22;3.13;;;;;;;9.02;84.69;98401.63;4992045;28;104133;-69
2023/11/19 03:41:11;;;;;;;4.30;2.85;;;;;;;9.03;84.74;98398.00;4986028;28;103288;-69
2023/11/19 03:43:42;;;;;;;3.42;2.08;;;;;;;9.05;84.43;98396.03;4988339;28;104096;-69
2023/11/19 03:46:19;;;;;;;3.47;2.08;;;;;;;9.11;84.44;98383.97;5001989;28;102857;-70
2023/11/19 03:48:50;;;;;;;3.25;2.22;;;;;;;9.11;84.46;98390.06;4995541;28;103232;-70
2023/11/19 03:51:18;;;;;;;4.43;2.13;;;;;;;9.13;84.38;98393.38;4990158;28;103477;-69
2023/11/19 03:53:47;;;;;;;6.07;2.90;;;;;;;9.18;84.44;98381.47;4989708;28;102609;-70
2023/11/19 03:56:14;;;;;;;3.65;2.28;;;;;;;9.18;84.32;98378.84;4996751;28;102970;-70
2023/11/19 03:58:43;;;;;;;3.55;2.15;;;;;;;9.19;84.33;98369.94;4993563;28;103284;-70
2023/11/19 04:01:12;;;;;;;3.85;2.40;;;;;;;9.23;84.37;98358.84;4996353;28;103227;-70
2023/11/19 04:03:40;;;;;;;3.83;2.50;;;;;;;9.22;84.16;98349.28;5001467;28;102668;-70
2023/11/19 04:06:19;;;;;;;3.92;2.50;;;;;;;9.20;84.02;98355.72;4995364;28;102592;-69
2023/11/19 04:08:47;;;;;;;3.58;2.08;;;;;;;9.25;84.41;98353.41;4987496;28;103241;-69
2023/11/19 04:11:18;;;;;;;3.42;2.20;;;;;;;9.24;84.31;98357.03;4995413;28;103099;-70
2023/11/19 04:13:46;;;;;;;3.40;2.08;;;;;;;9.26;84.53;98366.47;4996285;28;103952;-70
2023/11/19 04:16:15;;;;;;;5.63;3.67;;;;;;;9.19;84.65;98364.66;4986598;28;102814;-70
2023/11/19 04:18:43;;;;;;;5.63;3.00;;;;;;;9.12;84.94;98365.31;4998194;28;104187;-70
2023/11/19 04:21:11;;;;;;;4.30;2.40;;;;;;;9.15;85.54;98365.97;4993325;28;103212;-70
2023/11/19 04:23:40;;;;;;;3.95;2.50;;;;;;;9.25;85.27;98364.81;5000497;28;102664;-70
2023/11/19 04:26:09;;;;;;;4.03;2.35;;;;;;;9.28;85.08;98368.91;4993053;28;104202;-69
2023/11/19 04:28:38;;;;;;;2.50;1.60;;;;;;;9.30;85.22;98372.22;4990743;28;103181;-70
2023/11/19 04:31:06;;;;;;;3.50;2.10;;;;;;;9.34;85.13;98368.25;4990671;28;102725;-69
2023/11/19 04:33:35;;;;;;;4.68;2.10;;;;;;;9.32;84.95;98364.94;4989981;28;102861;-69
2023/11/19 04:36:03;;;;;;;2.92;1.90;;;;;;;9.35;85.01;98354.03;4996339;28;104682;-69
2023/11/19 04:38:34;;;;;;;3.42;2.20;;;;;;;9.37;85.15;98352.06;5002471;28;103483;-69
2023/11/19 04:41:05;;;;;;;3.90;1.90;;;;;;;9.40;84.93;98367.56;4987961;28;103167;-69
2023/11/19 04:43:33;;;;;;;3.10;1.80;;;;;;;9.36;84.91;98371.53;4995209;28;102678;-69
2023/11/19 04:46:04;;;;;;;3.60;2.22;;;;;;;9.45;84.53;98372.34;4991566;28;103219;-69
2023/11/19 04:48:32;;;;;;;3.42;2.05;;;;;;;9.41;84.83;98371.88;4989969;28;103542;-69
2023/11/19 04:51:10;;;;;;;2.75;1.60;;;;;;;9.45;85.07;98377.66;4996221;28;103332;-69
2023/11/19 04:53:38;;;;;;;3.10;1.90;;;;;;;9.43;85.39;98366.41;4995959;28;104874;-69
2023/11/19 04:56:11;;;;;;;2.75;1.70;;;;;;;9.44;85.37;98374.16;4994912;28;103944;-69
2023/11/19 04:58:39;;;;;;;1.80;1.52;;;;;;;9.54;85.07;98381.09;4987120;28;103280;-69
2023/11/19 05:01:07;;;;;;;2.63;1.65;;;;;;;9.53;84.87;98374.97;4991670;28;103220;-69
2023/11/19 05:03:36;;;;;;;4.28;1.70;;;;;;;9.55;85.06;98372.16;4991560;28;103158;-69
2023/11/19 05:06:04;;;;;;;2.30;1.60;;;;;;;9.54;84.86;98373.19;4992217;28;102730;-69
2023/11/19 05:08:32;;;;;;;2.33;1.60;;;;;;;9.54;84.98;98362.59;4987172;28;103906;-69
2023/11/19 05:11:03;;;;;;;2.25;1.42;;;;;;;9.57;85.07;98367.53;4992810;28;103208;-69
2023/11/19 05:13:32;;;;;;;3.25;1.58;;;;;;;9.59;84.98;98370.84;4990967;28;102690;-69
2023/11/19 05:16:00;;;;;;;3.70;1.58;;;;;;;9.62;84.71;98376.59;4998419;28;102746;-69
2023/11/19 05:18:28;;;;;;;2.63;1.67;;;;;;;9.65;84.81;98374.63;4987866;28;103508;-69
2023/11/19 05:20:56;;;;;;;1.70;1.33;;;;;;;9.67;84.92;98370.81;4988217;28;103460;-69
2023/11/19 05:23:24;;;;;;;1.50;1.30;;;;;;;9.72;85.04;98375.56;4989627;28;102780;-70
2023/11/19 05:25:52;;;;;;;1.88;1.20;;;;;;;9.73;85.43;98364.84;4994975;28;103071;-69
2023/11/19 05:28:20;;;;;;;1.45;1.20;;;;;;;9.79;85.00;98377.38;4988342;28;103000;-69
2023/11/19 05:30:50;;;;;;;1.17;1.02;;;;;;;9.84;85.31;98368.94;4997595;28;104084;-69
2023/11/19 05:33:18;;;;;;;1.15;1.00;;;;;;;9.90;85.45;98384.13;4988436;28;102617;-69
2023/11/19 05:35:48;;;;;;;2.20;1.20;;;;;;;9.94;85.52;98384.59;4994240;28;103103;-69
2023/11/19 05:38:16;;;;;;;0.80;0.80;;;;;;;9.98;85.21;98388.53;4990319;28;104585;-69
2023/11/19 05:40:48;;;;;;;0.85;0.75;;;;;;;10.03;85.32;98388.03;4990419;28;103013;-69
2023/11/19 05:43:17;;;;;;;0.95;0.82;;;;;;;10.03;85.12;98378.25;4994707;28;102688;-69
2023/11/19 05:45:45;;;;;;;0.70;0.70;;;;;;;10.06;85.00;98370.00;4996856;28;104212;-70
2023/11/19 05:48:14;;;;;;;1.02;0.95;;;;;;;10.08;84.92;98375.13;5011371;27;103461;-70
2023/11/19 05:50:42;;;;;;;0.70;0.70;;;;;;;10.09;84.86;98351.13;4987111;28;103273;-70
2023/11/19 05:53:13;;;;;;;1.17;1.08;;;;;;;10.11;84.89;98349.13;4994056;28;103029;-69
2023/11/19 05:55:48;;;;;;;0.98;0.90;;;;;;;10.10;85.01;98347.47;4992421;28;104059;-69
2023/11/19 05:58:16;;;;;;;0.70;0.70;;;;;;;10.14;84.85;98350.63;4990766;28;103282;-69
2023/11/19 06:00:44;;;;;;;1.17;1.08;;;;;;;10.17;84.78;98347.59;4992114;28;103290;-69
2023/11/19 06:03:14;;;;;;;1.27;1.10;;;;;;;10.20;84.63;98351.72;4997443;28;103074;-70
2023/11/19 06:05:42;;;;;;;1.90;0.82;;;;;;;10.21;84.66;98353.38;4989967;28;102724;-70
2023/11/19 06:08:09;;;;;;;0.70;0.70;;;;;;;10.23;84.44;98364.59;4989012;28;103354;-70
2023/11/19 06:10:39;;;;;;;0.73;0.73;;;;;;;10.24;84.43;98368.91;4992157;28;103062;-70
2023/11/19 06:13:09;;;;;;;1.25;0.95;;;;;;;10.23;84.43;98361.97;4990268;27;102741;-69
2023/11/19 06:15:38;;;;;;;0.90;0.68;;;;;;;10.25;84.26;98371.38;4988205;28;102726;-70
2023/11/19 06:18:08;;;;;;;1.45;0.90;;;;;;;10.25;84.31;98370.56;4988096;28;103275;-70
2023/11/19 06:20:38;;;;;;;0.90;0.90;;;;;;;10.21;84.44;98375.38;4992830;28;103196;-70
2023/11/19 06:23:09;;;;;;;0.60;0.60;;;;;;;10.28;84.42;98381.63;4993160;28;102662;-69
2023/11/19 06:25:37;;;;;;;1.13;0.85;;;;;;;10.30;84.27;98381.44;4986716;28;103774;-70
2023/11/19 06:28:05;;;;;;;1.13;0.80;;;;;;;10.29;84.04;98374.50;4993617;28;103299;-70
2023/11/19 06:30:33;;;;;;;0.80;0.80;;;;;;;10.27;84.08;98384.44;4987141;28;103301;-70
2023/11/19 06:33:01;;;;;;;0.93;0.90;;;;;;;10.31;84.46;98375.16;4997390;28;102869;-70
2023/11/19 06:35:35;;;;;;;0.93;0.85;;;;;;;10.30;84.30;98389.41;4997365;28;103928;-70
2023/11/19 06:38:05;;;;;;;0.93;0.80;;;;;;;10.36;84.09;98383.44;4993285;28;103323;-70
2023/11/19 06:40:34;;;;;;;0.77;0.77;;;;;;;10.40;83.96;98389.19;4993756;28;102961;-70
2023/11/19 06:43:08;;;;;;;1.15;0.88;;;;;;;10.40;84.02;98390.03;4996637;28;102708;-69
2023/11/19 06:45:37;;;;;;;1.92;0.70;;;;;;;10.44;83.84;98396.63;4993003;28;103100;-69
2023/11/19 06:48:07;;;;;;;1.08;0.85;;;;;;;10.47;84.00;98391.97;4992046;28;104565;-70
2023/11/19 06:50:35;;;;;;;1.23;1.00;;;;;;;10.48;84.06;98396.25;4985328;28;103327;-70
2023/11/19 06:53:04;;;;;;;0.70;0.70;;;;;;;10.46;84.07;98391.16;4992798;28;102679;-70
2023/11/19 06:55:34;;;;;;;0.90;0.90;;;;;;;10.49;84.21;98393.44;4992395;28;104310;-66
2023/11/19 06:58:02;;;;;;;0.60;0.60;;;;;;;10.51;83.92;98406.53;4993987;28;104218;-66
2023/11/19 07:00:32;;;;;;;1.52;0.90;;;;;;;10.54;83.90;98398.22;4990395;28;103337;-66
2023/11/19 07:03:03;;;;;;;0.87;0.87;;;;;;;10.52;84.04;98392.25;4994175;28;102878;-66
2023/11/19 07:05:31;;;;;;;1.25;0.80;;;;;;;10.52;84.04;98392.25;5003372;28;103064;-66
2023/11/19 07:08:01;;;;;;;2.60;1.30;;;;;;;10.54;84.01;98395.56;4992270;28;103133;-66
2023/11/19 07:10:31;;;;;;;3.47;1.08;;;;;;;10.57;84.00;98395.22;4997621;28;103214;-66
2023/11/19 07:13:01;;;;;;;1.48;0.90;;;;;;;10.55;83.99;98389.28;5010152;28;103064;-65
2023/11/19 07:15:29;;;;;;;4.15;1.20;;;;;;;10.54;84.04;98391.09;5004719;28;102665;-69
2023/11/19 07:17:58;;;;;;;1.63;1.10;;;;;;;10.58;84.03;98392.38;5005296;28;103341;-69
2023/11/19 07:20:28;;;;;;;1.77;1.02;;;;;;;10.59;84.04;98395.88;5000616;28;103006;-69
2023/11/19 07:22:57;;;;;;;1.02;0.90;;;;;;;10.65;83.73;98397.81;5007515;28;102588;-69
2023/11/19 07:25:28;;;;;;;1.00;0.95;;;;;;;10.69;83.43;98393.81;4991983;27;103892;-69
2023/11/19 07:32:16;;;;;;;0.65;0.65;;;;;;;10.78;83.48;98413.94;4988660;28;103179;-69
2023/11/19 07:34:44;;;;;;;0.77;0.77;;;;;;;10.80;83.18;98415.59;4996308;28;102684;-69
2023/11/19 07:37:13;;;;;;;0.80;0.80;;;;;;;10.80;83.16;98421.72;5001404;27;102702;-68
2023/11/19 07:39:42;;;;;;;1.27;0.93;;;;;;;10.83;83.33;98428.50;5001709;28;103267;-69
2023/11/19 07:42:10;;;;;;;1.35;1.00;;;;;;;10.80;83.30;98426.19;5001357;28;103781;-68
2023/11/19 07:44:38;;;;;;;0.68;0.60;;;;;;;10.84;83.18;98430.97;4992862;28;103066;-69
2023/11/19 07:47:08;;;;;;;1.55;1.00;;;;;;;10.84;83.19;98423.00;4991492;28;103049;-70
2023/11/19 07:49:38;;;;;;;1.23;1.00;;;;;;;10.89;82.89;98433.09;5000223;28;104421;-69
2023/11/19 07:52:07;;;;;;;1.15;1.05;;;;;;;10.88;83.09;98426.13;4993740;27;102971;-69
2023/11/19 07:54:48;;;;;;;1.17;0.98;;;;;;;10.90;82.77;98437.38;4996571;28;102642;-70
2023/11/19 07:57:16;;;;;;;2.78;1.20;;;;;;;10.90;82.77;98432.91;4996376;28;103135;-68
2023/11/19 07:59:48;;;;;;;1.30;1.00;;;;;;;10.89;82.75;98427.78;4996778;28;103481;-69
2023/11/19 08:02:16;;;;;;;1.48;1.13;;;;;;;10.95;82.72;98432.34;4994808;28;103160;-69
2023/11/19 08:04:45;;;;;;;1.05;0.90;;;;;;;10.98;82.91;98429.38;5002015;28;102561;-69
2023/11/19 08:07:14;;;;;;;1.20;1.10;;;;;;;11.04;82.56;98433.13;4997146;28;103442;-69
2023/11/19 08:09:44;;;;;;;0.90;0.90;;;;;;;11.02;82.32;98430.66;4994609;28;103239;-69
2023/11/19 08:12:14;;;;;;;2.65;1.13;;;;;;;11.07;82.25;98444.22;4994422;28;104422;-69
2023/11/19 08:14:42;;;;;;;1.23;1.08;;;;;;;11.14;82.53;98435.56;5001232;28;102637;-69
2023/11/19 08:17:10;;;;;;;1.38;1.20;;;;;;;11.16;82.30;98436.19;5004842;28;102698;-68
2023/11/19 08:19:38;;;;;;;1.23;1.02;;;;;;;11.18;82.03;98435.00;4995939;28;103286;-68
2023/11/19 08:22:09;;;;;;;1.70;1.20;;;;;;;11.31;82.01;98428.28;4998196;28;103322;-69
2023/11/19 08:24:37;;;;;;;1.38;1.00;;;;;;;11.32;81.91;98425.44;4997955;28;102690;-69
2023/11/19 08:27:05;;;;;;;0.90;0.82;;;;;;;11.50;81.41;98426.94;5002666;28;102786;-66
2023/11/19 08:29:36;;;;;;;3.08;0.98;;;;;;;11.52;81.17;98427.59;5005098;28;103299;-65
2023/11/19 08:32:04;;;;;;;1.17;1.05;;;;;;;11.52;81.29;98431.06;5004495;28;104143;-65
2023/11/19 08:34:32;;;;;;;1.85;1.17;;;;;;;11.54;81.27;98423.75;5004808;28;102697;-66
2023/11/19 08:37:00;;;;;;;1.75;1.45;;;;;;;11.57;80.84;98434.00;5001157;28;104143;-66
2023/11/19 08:39:32;;;;;;;1.90;1.10;;;;;;;11.63;80.78;98436.94;5005199;28;103315;-66
2023/11/19 08:42:00;;;;;;;0.93;0.90;;;;;;;11.68;80.67;98443.31;5002862;28;103286;-67
2023/11/19 08:44:27;;;;;;;2.90;1.02;;;;;;;11.69;80.93;98439.69;5004393;28;102681;-66
2023/11/19 08:46:55;;;;;;;1.55;1.20;;;;;;;11.83;80.71;98442.50;5006201;28;104380;-67
2023/11/19 08:49:24;;;;;;;2.28;1.30;;;;;;;11.84;80.98;98438.88;5001965;28;103290;-65
2023/11/19 08:51:52;;;;;;;1.27;1.00;;;;;;;11.88;80.57;98430.38;5002234;28;103372;-68
2023/11/19 08:54:22;;;;;;;1.38;1.27;;;;;;;11.98;80.39;98424.81;5000518;28;103210;-70
2023/11/19 08:56:52;;;;;;;3.40;1.08;;;;;;;12.07;80.39;98423.69;4999278;28;102710;-65
2023/11/19 08:59:20;;;;;;;1.92;1.23;;;;;;;12.13;79.67;98421.31;5002608;28;103408;-67
2023/11/19 09:01:49;;;;;;;2.80;1.20;;;;;;;12.16;79.43;98426.28;4993674;28;103218;-68
2023/11/19 09:04:18;;;;;;;2.28;1.20;;;;;;;12.15;79.17;98432.59;4984853;28;103587;-69
2023/11/19 09:06:46;;;;;;;1.20;1.10;;;;;;;12.54;78.68;98423.44;4992009;28;103676;-68
2023/11/19 09:09:14;;;;;;;1.25;1.00;;;;;;;12.81;77.81;98434.34;5000513;28;103299;-68
2023/11/19 09:11:42;;;;;;;1.00;0.90;;;;;;;12.96;77.60;98437.78;4995835;28;102859;-67
2023/11/19 09:14:12;;;;;;;1.38;1.00;;;;;;;13.02;76.63;98447.66;4988774;28;102686;-66
2023/11/19 09:16:40;;;;;;;1.13;0.90;;;;;;;13.16;76.33;98440.59;4997223;28;102593;-66
2023/11/19 09:19:08;;;;;;;1.40;1.10;;;;;;;13.01;76.55;98440.69;5002152;28;103188;-69
2023/11/19 09:21:38;;;;;;;0.80;0.80;;;;;;;13.00;77.31;98452.31;4987753;28;103232;-69
2023/11/19 09:24:07;;;;;;;1.10;1.02;;;;;;;12.99;77.27;98450.66;5000247;28;102663;-66
2023/11/19 09:26:36;;;;;;;1.23;1.02;;;;;;;12.93;77.30;98454.91;4995896;28;103539;-66
2023/11/19 09:29:04;;;;;;;1.90;1.30;;;;;;;12.91;76.75;98453.47;4996595;28;104439;-66
2023/11/19 09:31:34;;;;;;;2.03;1.10;;;;;;;12.92;77.09;98447.13;4996346;28;103289;-66
2023/11/19 09:34:02;;;;;;;1.80;1.10;;;;;;;12.91;76.68;98458.78;4998784;28;102723;-66
2023/11/19 09:36:31;;;;;;;1.52;1.00;;;;;;;12.85;77.12;98468.34;4994364;28;102782;-67
2023/11/19 09:39:00;;;;;;;1.55;1.10;;;;;;;12.90;76.70;98459.78;4998563;28;104513;-65
2023/11/19 09:41:28;;;;;;;2.13;1.20;;;;;;;12.86;76.71;98471.81;4990787;28;103199;-66
2023/11/19 09:43:56;;;;;;;1.65;1.17;;;;;;;12.92;76.70;98461.25;4997376;28;103569;-65
2023/11/19 09:46:25;;;;;;;2.95;1.17;;;;;;;12.96;76.37;98448.41;4989390;28;103870;-65
2023/11/19 09:48:59;;;;;;;2.38;1.20;;;;;;;13.16;75.66;98461.06;4999229;28;103353;-66
2023/11/19 09:51:27;;;;;;;;;;;;;;;13.10;75.62;98458.16;4992704;28;103218;-66
2023/11/19 09:53:55;;;;;;;1.90;1.27;;;;;;;13.26;75.99;98465.03;4993520;28;103382;-66
2023/11/19 09:56:24;;;;;;;1.38;1.08;;;;;;;13.29;75.93;98463.84;4993423;28;103220;-68
2023/11/19 09:58:54;;;;;;;1.40;1.10;;;;;;;13.39;75.12;98464.38;4995056;28;103358;-68
2023/11/19 10:01:25;;;;;;;1.65;1.20;;;;;;;13.48;75.27;98464.22;4993935;28;103138;-68
2023/11/19 10:03:58;;;;;;;1.75;1.20;;;;;;;13.50;75.03;98460.34;4996936;28;102704;-68
2023/11/19 10:06:27;;;;;;;1.58;0.90;;;;;;;13.47;74.77;98459.91;4994765;28;104408;-68
2023/11/19 10:08:55;;;;;;;2.08;1.40;;;;;;;13.50;74.92;98454.22;4988806;28;103304;-63
2023/11/19 10:11:23;;;;;;;2.78;1.30;;;;;;;13.45;74.58;98451.31;4997125;28;103200;-68
2023/11/19 10:13:52;;;;;;;1.23;1.05;;;;;;;13.51;74.57;98453.22;4995956;28;102940;-68
2023/11/19 10:16:20;;;;;;;2.70;1.45;;;;;;;13.56;74.18;98458.78;4987453;28;103032;-68
2023/11/19 10:18:51;;;;;;;1.10;0.95;;;;;;;13.62;74.97;98462.50;4993630;28;103650;-67
2023/11/19 10:21:20;;;;;;;3.38;1.20;;;;;;;13.68;75.06;98459.06;4996012;28;103566;-67
2023/11/19 10:23:52;;;;;;;2.00;1.20;;;;;;;13.81;74.44;98453.81;4993645;28;102589;-68
2023/11/19 10:26:23;;;;;;;1.42;1.10;;;;;;;13.80;74.53;98459.34;4993533;28;103174;-67
2023/11/19 10:28:52;;;;;;;1.27;0.95;;;;;;;13.94;74.49;98455.75;5000918;28;103512;-68
2023/11/19 10:31:24;;;;;;;1.15;1.05;;;;;;;13.79;74.18;98449.72;4999745;28;104611;-68
2023/11/19 10:33:53;;;;;;;7.60;4.33;;;;;;;13.80;74.61;98454.84;4996067;28;102915;-68
2023/11/19 10:36:23;;;;;;;5.93;1.58;;;;;;;13.85;72.33;98441.75;4998309;28;103085;-67
2023/11/19 10:38:56;;;;;;;3.83;1.63;;;;;;;13.87;69.92;98454.88;4989233;28;103432;-68
2023/11/19 10:41:28;;;;;;;1.33;1.00;;;;;;;13.93;69.71;98443.44;5001086;28;103329;-67
2023/11/19 10:43:57;;;;;;;1.88;1.23;;;;;;;14.06;70.63;98443.53;4995833;28;102812;-68
2023/11/19 10:46:38;;;;;;;2.75;1.35;;;;;;;14.44;68.19;98439.59;4997052;28;104287;-67
2023/11/19 10:49:07;;;;;;;2.55;1.40;;;;;;;14.48;68.38;98445.34;4996674;28;103059;-67
2023/11/19 10:51:36;;;;;;;1.20;1.10;;;;;;;14.94;67.66;98430.53;4997632;28;103272;-68
2023/11/19 10:54:07;;;;;;;7.03;1.50;;;;;;;15.08;67.31;98435.66;4999963;28;102690;-67
2023/11/19 10:56:35;;;;;;;3.58;1.45;;;;;;;14.98;66.14;98435.25;4995208;28;102680;-67
2023/11/19 10:59:05;;;;;;;2.03;1.00;;;;;;;15.02;66.96;98431.13;5000241;28;103514;-67
2023/11/19 11:01:54;;;;;;;3.17;1.30;;;;;;;15.18;65.94;98439.78;4993686;28;103222;-68
2023/11/19 11:04:25;;;;;;;1.55;1.00;;;;;;;15.05;66.68;98429.91;5000871;28;102713;-67
2023/11/19 11:06:58;;;;;;;1.30;0.90;;;;;;;14.83;64.46;98431.94;4997407;28;102612;-67
2023/11/19 11:09:27;;;;;;;1.00;0.90;;;;;;;15.09;67.28;98426.66;4992975;28;103745;-66
2023/11/19 11:11:57;;;;;;;2.80;1.27;;;;;;;14.99;66.78;98425.41;4993784;28;103157;-67
2023/11/19 11:14:28;;;;;;;2.22;1.33;;;;;;;14.90;65.60;98433.59;4997706;28;102652;-67
2023/11/19 11:16:58;;;;;;;2.25;1.60;;;;;;;14.77;65.18;98432.75;4996680;28;102610;-67
2023/11/19 11:19:27;;;;;;;3.20;1.20;;;;;;;14.69;64.67;98431.91;4994004;28;104291;-67
2023/11/19 11:21:58;;;;;;;4.68;1.33;;;;;;;14.75;65.32;98424.94;4997191;28;103497;-67
2023/11/19 11:24:58;;;;;;;2.28;1.13;;;;;;;14.58;63.54;98435.13;4994578;28;102944;-67
2023/11/19 11:27:46;;;;;;;4.88;1.98;;;;;;;14.58;63.16;98424.44;4986240;28;102703;-67
2023/11/19 11:30:29;;;;;;;3.58;1.50;;;;;;;14.49;63.88;98415.84;4993618;28;103534;-66
2023/11/19 11:33:11;;;;;;;1.60;1.27;;;;;;;14.34;64.40;98418.63;4989879;28;103231;-66
2023/11/19 11:35:50;;;;;;;2.92;1.30;;;;;;;14.54;63.85;98412.56;4994164;28;102794;-66
2023/11/19 11:38:25;;;;;;;3.08;1.17;;;;;;;14.50;63.70;98413.97;4988300;28;102706;-66
2023/11/19 11:41:19;;;;;;;1.75;1.40;;;;;;;14.82;62.80;98409.78;4989064;28;104066;-66
2023/11/19 11:43:46;;;;;;;;;;;;;;;15.13;62.96;98404.88;4995172;28;103270;-66
2023/11/19 11:46:57;;;;;;;2.03;1.38;;;;;;;15.58;60.99;98397.88;4993286;28;102649;-66
2023/11/19 11:49:31;;;;;;;3.25;1.58;;;;;;;15.44;61.40;98403.47;4950925;28;102844;-67
2023/11/19 11:52:00;;;;;;;2.88;1.40;;;;;;;15.14;63.33;98399.34;4947317;28;103204;-66
2023/11/19 11:54:30;;;;;;;2.95;1.50;;;;;;;14.88;62.79;98397.47;4974640;28;103349;-66
2023/11/19 11:57:05;;;;;;;;;;;;;;;14.61;62.09;98400.09;4993420;28;102689;-66
2023/11/19 11:59:49;;;;;;;3.83;1.48;;;;;;;14.77;62.07;98396.25;4989987;28;102912;-67